Time;durP1;ratioP1;P1;durP2;ratioP2;P2;SDS_P1;SDS_P2;PMS_P1;PMS_P2;Temp;Humidity;BMP_temperature;BMP_pressure;BME280_temperature;BME280_humidity;BME280_pressure;Samples;Min_cycle;Max_cycle;Signal;HPM_P1;HPM_P2
2022/03/10 00:01:46;;;;;;;22.88;12.55;;;;;;;-0.56;100.00;102423.53;10196799;29;20483;-89
2022/03/10 00:06:46;;;;;;;27.75;13.45;;;;;;;-1.65;100.00;102273.13;10184561;29;20062;-89
2022/03/10 00:11:47;;;;;;;28.00;14.02;;;;;;;-0.82;100.00;102422.28;10181545;29;20054;-89
2022/03/10 00:16:51;;;;;;;28.67;14.30;;;;;;;-1.42;100.00;102311.53;10225714;29;20036;-89
2022/03/10 00:21:52;;;;;;;31.02;15.98;;;;;;;-1.68;100.00;102278.78;10194032;29;20472;-89
2022/03/10 00:26:52;;;;;;;29.63;15.90;;;;;;;-1.59;100.00;102277.13;10209602;29;20035;-89
2022/03/10 00:31:55;;;;;;;35.58;18.45;;;;;;;-1.10;100.00;102394.19;10193583;29;20126;-89
2022/03/10 00:36:55;;;;;;;35.42;17.95;;;;;;;-1.57;100.00;102334.56;10225138;29;20042;-89
2022/03/10 00:41:56;;;;;;;33.15;16.70;;;;;;;-1.29;100.00;102394.19;10209136;29;20028;-88
2022/03/10 00:46:57;;;;;;;30.35;17.08;;;;;;;-1.43;100.00;102366.56;10209307;29;20059;-89
2022/03/10 00:51:57;;;;;;;26.45;13.95;;;;;;;-1.87;100.00;102300.34;10208371;29;20027;-89
2022/03/10 00:56:58;;;;;;;26.42;15.32;;;;;;;-1.66;100.00;102362.38;10208258;29;20114;-89
2022/03/10 01:01:58;;;;;;;31.95;15.32;;;;;;;-2.54;100.00;102220.84;10224194;29;20062;-89
2022/03/10 01:06:59;;;;;;;24.83;14.15;;;;;;;-1.26;100.00;102456.03;10223291;29;20055;-89
2022/03/10 01:12:00;;;;;;;26.92;13.25;;;;;;;-1.74;100.00;102391.91;10207771;29;20019;-89
2022/03/10 01:17:00;;;;;;;26.63;14.40;;;;;;;-2.42;100.00;102289.06;10191556;29;20376;-89
2022/03/10 01:22:01;;;;;;;24.40;14.10;;;;;;;-3.17;100.00;102176.00;10206629;28;20027;-89
2022/03/10 01:27:01;;;;;;;28.58;13.77;;;;;;;-2.34;100.00;102330.53;10207102;29;20090;-88
2022/03/10 01:32:02;;;;;;;26.83;13.23;;;;;;;-2.31;100.00;102362.66;10169541;29;20176;-89
2022/03/10 01:37:03;;;;;;;23.73;13.65;;;;;;;-2.04;100.00;102396.31;10151503;29;20059;-89
2022/03/10 01:42:06;;;;;;;23.33;14.10;;;;;;;-2.38;100.00;102329.09;10219854;29;20030;-89
2022/03/10 01:47:07;;;;;;;24.83;12.98;;;;;;;-2.25;100.00;102337.84;10190412;29;20515;-88
2022/03/10 01:52:07;;;;;;;31.98;13.88;;;;;;;-2.47;100.00;102325.38;10190347;29;20121;-88
2022/03/10 01:57:09;;;;;;;20.95;12.20;;;;;;;-2.31;100.00;102326.75;10189884;29;20089;-88
2022/03/10 02:02:10;;;;;;;26.20;13.32;;;;;;;-1.57;100.00;102429.09;10206226;29;20035;-89
2022/03/10 02:12:30;;;;;;;24.52;12.05;;;;;;;-2.12;100.00;102339.47;10239095;28;20530;-89
2022/03/10 02:17:30;;;;;;;23.38;12.32;;;;;;;-1.86;100.00;102373.13;10244650;28;20043;-89
2022/03/10 02:22:31;;;;;;;29.73;13.48;;;;;;;-1.65;100.00;102408.16;10237968;28;20474;-88
2022/03/10 02:27:31;;;;;;;25.95;13.23;;;;;;;-2.18;100.00;102348.09;10205009;29;20058;-88
2022/03/10 02:32:32;;;;;;;23.52;13.73;;;;;;;-2.42;100.00;102316.88;10214924;29;20357;-88
2022/03/10 02:37:32;;;;;;;21.23;12.50;;;;;;;-2.04;100.00;102374.72;10200638;29;20031;-89
2022/03/10 02:42:33;;;;;;;23.45;12.93;;;;;;;-2.07;100.00;102418.16;10219760;29;20480;-88
2022/03/10 02:47:33;;;;;;;20.65;11.88;;;;;;;-2.36;100.00;102386.47;10164304;29;20408;-88
2022/03/10 02:52:35;;;;;;;23.70;11.52;;;;;;;-2.71;100.00;102327.47;10179761;29;20032;-91
2022/03/10 02:57:37;;;;;;;23.55;11.55;;;;;;;-3.07;100.00;102284.69;10165909;29;20027;-88
2022/03/10 03:02:38;;;;;;;21.90;11.93;;;;;;;-2.96;100.00;102301.78;10165504;29;20034;-88
2022/03/10 03:07:38;;;;;;;23.30;12.23;;;;;;;-3.05;100.00;102309.66;10180837;29;20345;-91
2022/03/10 03:12:46;;;;;;;22.67;11.50;;;;;;;-2.62;100.00;102374.38;10165039;29;20026;-91
2022/03/10 03:17:47;;;;;;;24.42;13.18;;;;;;;-2.64;100.00;102378.06;10164203;29;20031;-89
2022/03/10 03:22:47;;;;;;;23.67;11.95;;;;;;;-2.79;100.00;102352.41;10164349;29;20503;-91
2022/03/10 03:27:48;;;;;;;19.27;10.90;;;;;;;-2.55;100.00;102391.75;10164985;29;20032;-91
2022/03/10 03:32:49;;;;;;;21.08;11.85;;;;;;;-2.98;100.00;102330.69;10180189;29;20024;-91
2022/03/10 03:37:49;;;;;;;24.20;12.10;;;;;;;-2.30;100.00;102447.97;10164574;29;20421;-91
2022/03/10 03:42:50;;;;;;;20.83;11.85;;;;;;;-2.82;100.00;102325.72;10163747;29;20095;-91
2022/03/10 03:47:50;;;;;;;20.92;11.52;;;;;;;-2.67;100.00;102363.97;10145952;29;20139;-91
2022/03/10 03:52:51;;;;;;;22.15;11.73;;;;;;;-3.12;100.00;102259.97;10147983;29;20036;-91
2022/03/10 03:57:51;;;;;;;23.17;10.65;;;;;;;-2.36;100.00;102397.25;10170478;29;20032;-92
2022/03/10 04:02:54;;;;;;;20.80;11.15;;;;;;;-1.94;100.00;102470.09;10132363;29;20042;-91
2022/03/10 04:07:54;;;;;;;21.60;11.15;;;;;;;-2.92;100.00;102335.56;10148144;29;20074;-91
2022/03/10 04:12:55;;;;;;;18.88;10.57;;;;;;;-2.41;100.00;102418.38;10146509;29;20052;-91
2022/03/10 04:17:55;;;;;;;21.08;11.02;;;;;;;-2.50;100.00;102413.75;10162278;29;20150;-91
2022/03/10 04:22:56;;;;;;;30.63;11.88;;;;;;;-2.14;100.00;102493.41;10185782;29;20036;-91
2022/03/10 04:27:57;;;;;;;22.63;12.20;;;;;;;-2.88;100.00;102393.59;10184359;29;20035;-91
2022/03/10 04:32:58;;;;;;;19.77;10.90;;;;;;;-2.86;100.00;102388.94;10185649;29;20410;-91
2022/03/10 04:37:58;;;;;;;24.60;13.13;;;;;;;-2.80;100.00;102415.38;10168349;29;20479;-91
2022/03/10 04:42:59;;;;;;;20.90;11.10;;;;;;;-2.68;100.00;102441.31;10168490;29;20277;-90
2022/03/10 04:47:59;;;;;;;21.00;12.02;;;;;;;-2.95;100.00;102387.03;10169019;29;20123;-91
2022/03/10 04:53:00;;;;;;;24.50;13.52;;;;;;;-3.21;100.00;102355.03;10184785;29;20040;-91
2022/03/10 04:58:01;;;;;;;22.42;11.45;;;;;;;-2.79;100.00;102414.41;10182661;29;20040;-91
2022/03/10 05:03:02;;;;;;;21.05;12.02;;;;;;;-2.70;100.00;102420.88;10183762;29;20039;-91
2022/03/10 05:08:02;;;;;;;22.90;12.30;;;;;;;-3.15;100.00;102341.03;10199923;29;20115;-91
2022/03/10 05:13:03;;;;;;;22.80;11.55;;;;;;;-2.22;100.00;102484.25;10182752;29;20020;-91
2022/03/10 05:18:04;;;;;;;26.52;12.23;;;;;;;-2.71;100.00;102420.00;10167078;29;20114;-91
2022/03/10 05:23:04;;;;;;;27.05;14.32;;;;;;;-3.16;100.00;102360.03;10166102;29;20031;-91
2022/03/10 05:28:07;;;;;;;21.83;12.40;;;;;;;-2.51;100.00;102452.53;10183700;29;20043;-90
2022/03/10 05:33:11;;;;;;;22.42;12.55;;;;;;;-2.93;100.00;102415.56;10184483;29;20428;-91
2022/03/10 05:38:12;;;;;;;26.52;14.02;;;;;;;-2.87;100.00;102414.19;10182309;29;20050;-91
2022/03/10 05:43:12;;;;;;;24.85;12.70;;;;;;;-2.60;100.00;102489.22;10165926;29;20031;-88
2022/03/10 05:48:13;;;;;;;25.60;12.80;;;;;;;-2.22;100.00;102535.53;10165996;29;20060;-88
2022/03/10 05:53:13;;;;;;;22.42;11.90;;;;;;;-2.62;100.00;102453.44;10166146;29;20051;-88
2022/03/10 05:58:14;;;;;;;23.02;12.77;;;;;;;-2.51;100.00;102436.34;10181815;29;20483;-88
2022/03/10 06:03:14;;;;;;;23.30;14.48;;;;;;;-2.73;100.00;102415.72;10156756;29;20047;-88
2022/03/10 06:08:15;;;;;;;21.58;12.07;;;;;;;-2.32;100.00;102476.94;10142715;29;20028;-88
2022/03/10 06:13:15;;;;;;;27.95;13.80;;;;;;;-2.54;100.00;102431.19;10165890;29;20039;-88
2022/03/10 06:18:16;;;;;;;25.60;12.50;;;;;;;-1.72;100.00;102539.28;10187074;29;20059;-88
2022/03/10 06:23:16;;;;;;;25.58;13.00;;;;;;;-2.14;100.00;102444.00;10179582;29;20031;-89
2022/03/10 06:28:17;;;;;;;21.70;12.13;;;;;;;-1.52;100.00;102494.34;10165640;29;20130;-89
2022/03/10 06:33:17;;;;;;;20.02;11.88;;;;;;;-1.53;100.00;102481.84;10180669;29;20035;-89
2022/03/10 06:38:18;;;;;;;21.42;11.88;;;;;;;-1.25;100.00;102490.19;10165146;29;20521;-89
2022/03/10 06:43:18;;;;;;;23.35;12.10;;;;;;;-1.72;100.00;102379.13;10181109;29;20515;-89
2022/03/10 06:48:20;;;;;;;23.38;12.52;;;;;;;-1.38;100.00;102400.44;10164460;29;20047;-89
2022/03/10 06:53:20;;;;;;;21.70;11.90;;;;;;;-0.86;100.00;102452.44;10180959;29;20028;-89
2022/03/10 06:58:21;;;;;;;20.90;12.30;;;;;;;-0.83;100.00;102419.69;10181024;29;20449;-89
2022/03/10 07:03:22;;;;;;;21.77;11.60;;;;;;;-0.17;100.00;102481.19;10181036;29;20036;-90
2022/03/10 07:08:22;;;;;;;21.88;12.35;;;;;;;-0.41;100.00;102403.19;10196213;29;20114;-90
2022/03/10 07:13:23;;;;;;;18.77;10.93;;;;;;;-0.10;100.00;102435.47;10180109;29;20504;-90
2022/03/10 07:18:23;;;;;;;19.60;11.77;;;;;;;-0.06;100.00;102434.19;10164837;29;20027;-90
2022/03/10 07:23:24;;;;;;;19.55;12.02;;;;;;;-0.03;100.00;102396.81;10155846;29;20071;-90
2022/03/10 07:28:24;;;;;;;19.67;10.48;;;;;;;0.08;100.00;102420.16;10133997;29;20456;-90
2022/03/10 07:33:25;;;;;;;20.67;11.77;;;;;;;0.10;100.00;102398.34;10165163;29;20097;-91
2022/03/10 07:38:25;;;;;;;23.10;11.13;;;;;;;0.58;100.00;102478.59;10164833;29;20032;-91
2022/03/10 07:43:26;;;;;;;22.85;12.20;;;;;;;0.78;100.00;102493.75;10161209;29;20067;-90
2022/03/10 07:48:27;;;;;;;22.15;11.95;;;;;;;0.57;100.00;102447.06;10172254;29;20134;-90
2022/03/10 07:53:27;;;;;;;26.25;13.73;;;;;;;0.51;100.00;102407.88;10204805;29;20052;-92
2022/03/10 07:58:29;;;;;;;22.73;11.70;;;;;;;1.59;100.00;102574.41;10189389;29;20032;-91
2022/03/10 08:03:30;;;;;;;20.20;10.85;;;;;;;1.78;100.00;102580.72;10188070;29;20054;-91
2022/03/10 08:08:31;;;;;;;19.85;12.07;;;;;;;1.21;100.00;102462.38;10204496;29;20044;-92
2022/03/10 08:13:32;;;;;;;17.77;11.48;;;;;;;1.04;100.00;102378.31;10165367;29;20066;-91
2022/03/10 08:18:32;;;;;;;20.40;11.15;;;;;;;2.33;100.00;102577.78;10164143;29;20044;-92
2022/03/10 08:23:33;;;;;;;22.42;12.63;;;;;;;1.79;100.00;102431.19;10199964;29;20028;-90
2022/03/10 08:28:34;;;;;;;19.13;12.30;;;;;;;1.84;100.00;102394.56;10168245;29;20032;-90
2022/03/10 08:33:35;;;;;;;30.67;13.82;;;;;;;1.57;100.00;102304.09;10159613;29;20016;-90
2022/03/10 08:38:35;;;;;;;20.58;12.02;;;;;;;2.12;100.00;102322.75;10167855;29;20035;-90
2022/03/10 08:43:37;;;;;;;19.00;10.73;;;;;;;2.80;100.00;102399.81;10165094;29;20114;-90
2022/03/10 08:48:39;;;;;;;18.80;11.43;;;;;;;3.09;100.00;102412.97;10174484;29;20132;-90
2022/03/10 08:53:39;;;;;;;21.40;11.85;;;;;;;3.40;100.00;102418.63;10184141;29;20127;-90
2022/03/10 08:58:40;;;;;;;17.02;10.18;;;;;;;3.51;100.00;102381.19;10177425;29;20110;-92
2022/03/10 09:03:40;;;;;;;17.65;11.07;;;;;;;3.70;100.00;102353.59;10177133;29;20114;-92
2022/03/10 09:08:42;;;;;;;19.17;10.00;;;;;;;4.36;100.00;102389.72;10167720;29;20125;-91
2022/03/10 09:13:49;;;;;;;16.75;10.90;;;;;;;4.92;100.00;102446.94;10190303;29;20468;-91
2022/03/10 09:18:49;;;;;;;19.02;10.23;;;;;;;5.23;100.00;102435.16;10174996;29;20024;-90
2022/03/10 09:23:51;;;;;;;20.95;10.45;;;;;;;5.28;100.00;102364.44;10177169;29;20021;-90
2022/03/10 09:28:51;;;;;;;20.17;10.68;;;;;;;5.83;100.00;102382.41;10145795;29;20483;-91
2022/03/10 09:33:52;;;;;;;17.15;11.20;;;;;;;6.20;100.00;102380.69;10179733;29;20035;-91
2022/03/10 09:38:53;;;;;;;21.30;10.10;;;;;;;6.19;98.29;102307.88;10164320;29;20095;-91
2022/03/10 09:43:53;;;;;;;14.30;9.40;;;;;;;7.04;96.33;102350.13;10158700;29;20028;-90
2022/03/10 09:48:54;;;;;;;16.67;9.07;;;;;;;7.06;89.94;102279.59;10155609;29;20483;-91
2022/03/10 09:53:55;;;;;;;14.57;9.23;;;;;;;7.88;88.15;102330.22;10189690;29;20452;-91
2022/03/10 09:58:56;;;;;;;16.60;9.80;;;;;;;8.39;86.13;102353.72;10176923;29;20036;-91
2022/03/10 10:03:56;;;;;;;16.23;9.30;;;;;;;8.57;82.44;102316.66;10159892;29;20024;-93
2022/03/10 10:08:57;;;;;;;16.80;9.35;;;;;;;8.68;78.63;102275.75;10180335;29;20062;-90
2022/03/10 10:13:57;;;;;;;12.80;8.73;;;;;;;9.34;78.77;102345.56;10214440;29;20020;-90
2022/03/10 10:18:58;;;;;;;15.80;9.18;;;;;;;9.84;75.72;102357.00;10197648;29;20388;-91
2022/03/10 10:23:59;;;;;;;12.35;8.75;;;;;;;9.98;73.29;102326.69;10182629;29;20145;-90
2022/03/10 10:29:00;;;;;;;19.05;10.63;;;;;;;10.18;69.39;102315.66;10199077;29;20392;-91
2022/03/10 10:34:02;;;;;;;13.50;9.07;;;;;;;10.98;69.55;102395.22;10143659;29;20548;-90
2022/03/10 10:39:06;;;;;;;15.43;9.40;;;;;;;11.14;67.23;102377.31;10178015;29;20024;-91
2022/03/10 10:44:18;;;;;;;13.48;8.55;;;;;;;10.85;66.66;102296.94;10229335;29;20044;-90
2022/03/10 10:49:19;;;;;;;14.75;9.18;;;;;;;11.80;64.80;102382.38;10197031;29;20106;-88
2022/03/10 10:54:20;;;;;;;14.30;9.43;;;;;;;12.00;63.02;102362.03;10181221;29;20063;-88
2022/03/10 10:59:32;;;;;;;14.32;8.95;;;;;;;12.26;60.60;102349.88;10206298;29;20027;-89
2022/03/10 11:10:48;;;;;;;15.55;9.93;;;;;;;12.45;56.10;102290.78;10215747;29;20035;-89
2022/03/10 11:15:50;;;;;;;16.38;8.38;;;;;;;12.37;52.79;102262.66;10198620;29;20106;-88
2022/03/10 11:20:59;;;;;;;15.77;9.25;;;;;;;12.14;54.51;102183.31;10203456;29;20507;-88
2022/03/10 11:26:21;;;;;;;15.07;8.68;;;;;;;13.06;50.71;102307.34;10171195;29;20032;-90
2022/03/10 11:31:22;;;;;;;13.75;8.82;;;;;;;12.38;52.29;102164.91;10185285;29;20092;-91
2022/03/10 11:36:23;;;;;;;13.45;9.65;;;;;;;13.70;51.95;102315.91;10166685;29;20105;-90
2022/03/10 11:41:27;;;;;;;13.73;9.63;;;;;;;13.04;49.45;102176.81;10222877;29;20055;-90
2022/03/10 11:46:29;;;;;;;14.43;8.93;;;;;;;13.99;49.71;102338.19;10198248;29;20055;-90
2022/03/10 11:51:52;;;;;;;19.70;9.93;;;;;;;13.64;50.52;102242.16;10189824;29;20396;-90
2022/03/10 11:56:55;;;;;;;15.75;10.20;;;;;;;14.55;48.67;102292.28;10175087;29;20027;-91
2022/03/10 12:01:59;;;;;;;13.70;9.23;;;;;;;14.43;50.20;102238.88;10203900;29;20039;-91
2022/03/10 12:06:59;;;;;;;15.40;10.52;;;;;;;14.51;49.25;102232.91;10188524;29;20055;-91
2022/03/10 12:12:16;;;;;;;14.68;10.23;;;;;;;14.38;48.89;102152.88;10170630;29;20440;-90
2022/03/10 12:17:38;;;;;;;14.95;10.20;;;;;;;15.71;46.87;102278.00;10186790;29;20024;-88
2022/03/10 12:22:42;;;;;;;15.43;10.27;;;;;;;16.16;46.44;102191.94;10201728;29;20074;-92
2022/03/10 12:27:52;;;;;;;16.65;11.23;;;;;;;17.49;44.25;102237.75;10188394;29;20019;-91
2022/03/10 12:32:54;;;;;;;20.35;10.38;;;;;;;17.76;41.37;102198.63;10171125;29;20369;-92
2022/03/10 12:37:54;;;;;;;16.55;11.88;;;;;;;18.97;40.72;102265.41;10170648;29;20104;-90
2022/03/10 12:43:01;;;;;;;15.98;10.70;;;;;;;19.25;39.46;102260.44;10170499;29;20035;-90
2022/03/10 12:48:04;;;;;;;15.38;11.18;;;;;;;19.50;38.84;102187.78;10186499;29;20047;-92
2022/03/10 12:53:10;;;;;;;17.15;12.63;;;;;;;20.19;39.07;102246.81;10203699;29;20031;-91
2022/03/10 12:58:11;;;;;;;16.90;13.13;;;;;;;20.19;38.62;102246.00;10170397;29;20030;-90
2022/03/10 13:03:11;;;;;;;15.95;12.18;;;;;;;19.72;36.87;102119.56;10185291;29;20042;-90
2022/03/10 13:08:13;;;;;;;16.55;12.23;;;;;;;19.93;36.03;102075.59;10168904;29;20167;-91
2022/03/10 13:13:29;;;;;;;16.73;12.98;;;;;;;20.84;36.29;102215.16;10168775;29;20306;-92
2022/03/10 13:18:41;;;;;;;18.15;12.73;;;;;;;21.42;33.70;102206.81;10168724;29;20039;-92
2022/03/10 13:23:41;;;;;;;17.98;11.95;;;;;;;20.76;32.82;102049.50;10210090;29;20701;-91
2022/03/10 13:28:42;;;;;;;17.80;12.90;;;;;;;20.73;32.50;102108.88;10153688;29;20175;-92
2022/03/10 13:33:42;;;;;;;18.70;11.95;;;;;;;20.78;31.93;102051.19;10183185;29;20023;-90
2022/03/10 13:38:43;;;;;;;19.33;12.10;;;;;;;20.80;32.48;102104.91;10222137;29;20062;-90
2022/03/10 13:43:43;;;;;;;18.35;12.07;;;;;;;21.37;33.50;102111.59;10200147;29;20111;-90
2022/03/10 13:48:45;;;;;;;20.13;11.45;;;;;;;21.52;31.09;102089.03;10187021;29;20420;-89
2022/03/10 13:54:00;;;;;;;17.52;12.50;;;;;;;21.16;30.52;102094.19;10154630;29;20031;-89
2022/03/10 13:59:04;;;;;;;19.27;12.43;;;;;;;21.29;32.65;102117.84;10210974;29;20059;-89
2022/03/10 14:04:09;;;;;;;19.50;12.40;;;;;;;20.65;31.92;102059.16;10190506;29;20411;-90
2022/03/10 14:09:21;;;;;;;19.03;13.00;;;;;;;21.24;30.92;102045.09;10190716;29;20019;-91
2022/03/10 14:14:34;;;;;;;17.75;13.35;;;;;;;21.26;30.38;102071.66;10192101;29;20016;-92
2022/03/10 14:19:36;;;;;;;21.52;14.00;;;;;;;20.76;31.65;102027.13;10208037;29;20399;-91
2022/03/10 14:24:37;;;;;;;21.42;13.63;;;;;;;21.38;30.57;102099.25;10198138;29;20456;-91
2022/03/10 14:29:43;;;;;;;20.10;13.98;;;;;;;20.96;32.16;102061.66;10239360;28;20051;-91
2022/03/10 14:34:44;;;;;;;19.63;15.23;;;;;;;20.74;31.37;102001.41;10223406;29;20031;-91
2022/03/10 14:39:45;;;;;;;18.70;13.07;;;;;;;20.72;32.68;102006.47;10230749;29;20106;-89
2022/03/10 14:44:46;;;;;;;21.25;14.02;;;;;;;19.98;33.14;101933.00;10206088;29;20491;-90
2022/03/10 14:49:46;;;;;;;21.30;12.30;;;;;;;20.94;32.00;102055.50;10190030;29;20113;-91
2022/03/10 14:54:47;;;;;;;18.73;13.38;;;;;;;20.69;32.59;102042.59;10221129;29;20035;-91
2022/03/10 14:59:47;;;;;;;19.17;13.15;;;;;;;20.98;33.36;102059.41;10221454;29;20454;-90
2022/03/10 15:04:48;;;;;;;18.90;12.80;;;;;;;20.90;32.73;102068.44;10221500;29;20035;-91
2022/03/10 15:09:49;;;;;;;19.23;13.60;;;;;;;21.17;31.84;102099.50;10222601;29;20082;-91
2022/03/10 15:14:52;;;;;;;19.25;12.73;;;;;;;20.02;32.35;102017.94;10221618;29;20020;-90
2022/03/10 15:19:53;;;;;;;19.77;12.40;;;;;;;18.86;33.20;101945.66;10205692;29;20435;-91
2022/03/10 15:24:54;;;;;;;19.95;12.70;;;;;;;18.11;34.30;101913.72;10222235;29;20031;-90
2022/03/10 15:29:54;;;;;;;14.20;10.55;;;;;;;17.49;34.62;101957.38;10205837;29;20027;-90
2022/03/10 15:34:55;;;;;;;15.10;9.45;;;;;;;18.03;35.02;102067.53;10220344;29;20050;-87
2022/03/10 15:39:56;;;;;;;15.07;9.20;;;;;;;18.41;33.96;102036.63;10205544;28;20118;-91
2022/03/10 15:44:57;;;;;;;13.65;8.52;;;;;;;18.65;33.70;101992.28;10228142;29;20046;-90
2022/03/10 15:50:03;;;;;;;16.67;8.45;;;;;;;18.94;33.48;102028.78;10223244;29;20082;-90
2022/03/10 15:55:04;;;;;;;13.55;7.25;;;;;;;17.94;34.82;101936.31;10234013;29;20030;-90
2022/03/10 16:00:07;;;;;;;10.63;6.60;;;;;;;18.13;34.75;101999.84;10198642;29;20031;-90
2022/03/10 16:05:11;;;;;;;10.05;5.90;;;;;;;18.01;35.54;102113.50;10228558;29;20047;-90
2022/03/10 16:10:17;;;;;;;11.32;5.85;;;;;;;16.51;36.83;101989.41;10213796;29;20058;-90
2022/03/10 16:15:18;;;;;;;8.27;5.75;;;;;;;15.10;38.20;101875.66;10228397;29;20027;-90
2022/03/10 16:20:19;;;;;;;11.70;6.28;;;;;;;14.18;38.80;101927.06;10229088;29;20027;-93
2022/03/10 16:25:20;;;;;;;8.85;5.82;;;;;;;13.49;40.39;102002.78;10178878;29;20469;-89
2022/03/10 16:30:21;;;;;;;9.73;5.72;;;;;;;13.28;43.02;102091.94;10186267;29;20023;-89
2022/03/10 16:35:22;;;;;;;8.63;5.65;;;;;;;11.59;45.08;101900.03;10207772;29;20031;-90
2022/03/10 16:40:22;;;;;;;9.32;5.90;;;;;;;11.58;45.90;101965.41;10193524;29;20019;-90
2022/03/10 16:45:23;;;;;;;10.90;6.53;;;;;;;11.80;46.90;102034.69;10209287;29;20138;-89
2022/03/10 16:50:24;;;;;;;9.45;6.15;;;;;;;11.21;48.63;102004.06;10225710;29;20492;-92
2022/03/10 16:55:24;;;;;;;8.05;5.35;;;;;;;10.65;49.46;101970.16;10193795;29;20167;-91
2022/03/10 17:00:25;;;;;;;10.45;6.35;;;;;;;11.33;50.75;102114.44;10193272;29;20015;-89
2022/03/10 17:05:26;;;;;;;12.27;6.25;;;;;;;11.04;52.20;102135.28;10238904;29;20384;-88
2022/03/10 17:10:26;;;;;;;9.60;6.43;;;;;;;9.98;53.33;102015.81;10223658;29;20503;-90
2022/03/10 17:15:27;;;;;;;9.23;5.88;;;;;;;9.62;53.24;102000.81;10208184;29;20030;-89
2022/03/10 17:20:28;;;;;;;11.55;6.88;;;;;;;10.14;54.63;102136.34;10191856;29;20480;-90
2022/03/10 17:25:28;;;;;;;17.23;6.63;;;;;;;9.26;55.33;102035.22;10207053;29;20031;-90
2022/03/10 17:30:29;;;;;;;12.55;6.53;;;;;;;9.03;56.30;102025.63;10173711;29;20059;-90
2022/03/10 17:35:29;;;;;;;11.57;6.07;;;;;;;8.68;56.48;102022.28;10207078;29;20047;-90
2022/03/10 17:40:30;;;;;;;10.98;7.70;;;;;;;9.12;57.73;102152.59;10195720;29;20027;-89
2022/03/10 17:45:32;;;;;;;9.57;6.10;;;;;;;8.35;58.62;102072.53;10172542;29;20067;-90
2022/03/10 17:50:32;;;;;;;10.05;6.78;;;;;;;8.25;59.77;102111.34;10193848;29;20174;-90
2022/03/10 17:55:33;;;;;;;13.23;6.88;;;;;;;7.81;61.79;102078.97;10190724;29;20020;-89
2022/03/10 18:00:33;;;;;;;16.58;7.63;;;;;;;7.87;62.83;102114.66;10167041;29;20380;-89
2022/03/10 18:05:34;;;;;;;12.20;6.60;;;;;;;7.71;63.27;102109.53;10182357;29;20111;-91
2022/03/10 18:10:35;;;;;;;17.10;7.10;;;;;;;7.44;64.40;102032.69;10200317;29;20146;-89
2022/03/10 18:15:36;;;;;;;10.95;6.90;;;;;;;7.84;65.59;102130.66;10221690;29;20027;-90
2022/03/10 18:20:36;;;;;;;13.55;7.32;;;;;;;7.81;67.30;102131.94;10237142;29;20478;-89
2022/03/10 18:25:37;;;;;;;9.90;7.03;;;;;;;7.12;68.79;102023.28;10207814;29;20020;-89
2022/03/10 18:30:38;;;;;;;10.40;5.88;;;;;;;7.38;70.35;102107.47;10221979;29;20046;-89
2022/03/10 18:35:39;;;;;;;9.80;5.57;;;;;;;6.80;71.68;102033.84;10220094;29;20446;-89
2022/03/10 18:40:42;;;;;;;12.77;6.25;;;;;;;7.45;72.24;102168.63;10181622;29;20115;-89
2022/03/10 18:45:45;;;;;;;10.57;7.03;;;;;;;7.77;73.85;102190.97;10226561;29;20047;-89
2022/03/10 18:50:45;;;;;;;10.98;6.78;;;;;;;7.07;73.94;102107.94;10193911;28;20047;-90
2022/03/10 18:55:46;;;;;;;12.32;7.15;;;;;;;6.56;75.17;102040.63;10205010;29;20440;-90
2022/03/10 19:00:47;;;;;;;12.38;7.15;;;;;;;6.66;76.54;102093.09;10205611;29;20034;-89
2022/03/10 19:05:47;;;;;;;11.13;7.03;;;;;;;6.38;77.96;102071.19;10189949;29;20432;-89
2022/03/10 19:10:48;;;;;;;11.95;6.55;;;;;;;7.04;79.04;102194.06;10190298;29;20122;-90
2022/03/10 19:15:50;;;;;;;11.75;6.57;;;;;;;6.35;79.55;102117.25;10190924;28;20170;-90
2022/03/10 19:20:51;;;;;;;13.15;8.10;;;;;;;5.90;81.18;102062.72;10198122;29;20089;-90
2022/03/10 19:25:52;;;;;;;14.30;7.80;;;;;;;5.97;82.34;102084.69;10197479;29;20101;-90
2022/03/10 19:30:52;;;;;;;14.38;8.25;;;;;;;5.54;83.61;102002.63;10213170;29;20057;-90
2022/03/10 19:35:55;;;;;;;14.52;8.85;;;;;;;5.69;84.74;102054.50;10213036;29;20419;-90
2022/03/10 19:40:59;;;;;;;15.63;8.98;;;;;;;5.99;84.59;102088.06;10197785;29;20815;-91
2022/03/10 19:46:00;;;;;;;15.30;8.75;;;;;;;5.56;84.81;102055.16;10221522;28;20474;-90
2022/03/10 19:51:00;;;;;;;26.45;9.30;;;;;;;5.78;84.92;102069.72;10251997;28;20121;-90
2022/03/10 19:56:01;;;;;;;16.83;9.40;;;;;;;4.85;85.06;101913.84;10268015;28;20026;-91
2022/03/10 20:01:02;;;;;;;15.02;8.52;;;;;;;5.20;84.81;101998.66;10251693;28;20027;-92
2022/03/10 20:06:02;;;;;;;17.00;9.68;;;;;;;5.51;85.77;102063.13;10268145;28;20106;-92
2022/03/10 20:11:03;;;;;;;12.50;7.82;;;;;;;5.47;85.92;102079.03;10252188;28;20025;-89
2022/03/10 20:16:04;;;;;;;17.77;8.20;;;;;;;5.52;85.53;102086.63;10252031;28;20023;-91
2022/03/10 20:21:07;;;;;;;17.98;9.57;;;;;;;5.36;86.11;102087.72;10251808;28;20019;-92
2022/03/10 20:26:08;;;;;;;15.70;8.07;;;;;;;4.86;86.36;102013.78;10267772;28;20074;-92
2022/03/10 20:31:11;;;;;;;15.25;9.13;;;;;;;5.35;86.36;102118.78;10250356;28;20030;-90
2022/03/10 20:36:12;;;;;;;15.32;7.78;;;;;;;4.62;86.67;101999.34;10249625;28;20387;-91
2022/03/10 20:41:16;;;;;;;12.82;7.82;;;;;;;5.56;86.57;102180.84;10250325;28;20035;-91
2022/03/10 20:46:17;;;;;;;16.60;7.60;;;;;;;4.56;88.17;102048.34;10193394;29;20103;-91
2022/03/10 20:51:18;;;;;;;15.77;7.18;;;;;;;4.30;88.41;102033.28;10202407;29;20043;-91
2022/03/10 20:56:19;;;;;;;13.43;7.05;;;;;;;4.53;88.64;102093.22;10207091;29;20060;-91
2022/03/10 21:01:20;;;;;;;13.75;6.90;;;;;;;5.00;89.44;102198.50;10157409;29;20050;-91
2022/03/10 21:06:20;;;;;;;12.35;6.55;;;;;;;4.11;90.07;102040.06;10170536;29;20042;-91
2022/03/10 21:11:21;;;;;;;13.82;6.70;;;;;;;3.49;90.18;101972.09;10202177;29;20039;-91
2022/03/10 21:16:24;;;;;;;9.85;6.13;;;;;;;3.86;90.41;102033.94;10176009;29;20038;-91
2022/03/10 21:21:25;;;;;;;15.63;7.50;;;;;;;3.82;91.22;102060.72;10209794;29;20027;-89
2022/03/10 21:26:25;;;;;;;10.38;6.32;;;;;;;4.05;91.29;102089.84;10185210;29;20392;-89
2022/03/10 21:31:26;;;;;;;11.93;6.32;;;;;;;3.72;91.81;102045.63;10184779;29;20023;-89
2022/03/10 21:36:32;;;;;;;12.98;6.63;;;;;;;3.70;92.76;102045.81;10185227;29;20023;-89
2022/03/10 21:41:35;;;;;;;11.57;6.47;;;;;;;3.86;93.49;102090.31;10185764;29;20032;-89
2022/03/10 21:46:37;;;;;;;9.68;6.40;;;;;;;3.07;94.38;101938.00;10168237;29;20095;-90
2022/03/10 21:51:38;;;;;;;10.85;6.40;;;;;;;2.94;95.14;101952.19;10167691;29;20099;-89
2022/03/10 21:56:39;;;;;;;15.77;6.78;;;;;;;3.35;96.28;102015.41;10185453;29;20425;-91
2022/03/10 22:01:39;;;;;;;12.52;6.40;;;;;;;2.79;96.51;101952.03;10162999;29;20103;-89
2022/03/10 22:06:40;;;;;;;12.45;6.35;;;;;;;2.66;97.44;101952.63;10184672;29;20490;-90
2022/03/10 22:11:41;;;;;;;10.48;5.53;;;;;;;3.02;98.33;101991.06;10191052;29;20023;-90
2022/03/10 22:16:42;;;;;;;12.52;6.07;;;;;;;3.12;99.36;102028.09;10190547;29;20024;-90
2022/03/10 22:21:42;;;;;;;10.45;6.28;;;;;;;2.70;99.63;101958.56;10190969;29;20050;-89
2022/03/10 22:26:43;;;;;;;12.48;5.85;;;;;;;2.87;100.00;102052.66;10206649;29;20094;-89
2022/03/10 22:31:44;;;;;;;13.35;6.32;;;;;;;3.00;100.00;102050.25;10206070;29;20193;-90
2022/03/10 22:36:44;;;;;;;10.77;6.22;;;;;;;3.06;100.00;102066.88;10206727;29;20118;-90
2022/03/10 22:41:45;;;;;;;15.68;7.25;;;;;;;2.26;100.00;101940.00;10221779;29;20387;-90
2022/03/10 22:46:48;;;;;;;14.35;7.00;;;;;;;1.96;100.00;101916.13;10205998;29;20396;-90
2022/03/10 22:57:08;;;;;;;9.38;5.40;;;;;;;2.53;100.00;102028.44;10232903;29;20039;-89